Terminal Aerodrome Forecast
Issued by NWS

Home | Current Version | Previous Version | Text Only | Print | Product List | Glossary On
Versions: 1 2 3 4 5 6 7 8 9 10 11 12 13 14 15 16 17 18
405
FTUS43 KGRR 121738 AAA
TAFAZO
TAF AMD
KAZO 121738Z 1218/1318 30015G25KT 3SM -SN BLSN OVC025
      TEMPO 1218/1222 1/2SM SN BLSN OVC013
     FM122200 31015G25KT 2SM -SN BLSN OVC035
      TEMPO 1223/1301 1/4SM +SN BLSN VV007
     FM130500 32010KT 6SM -SN OVC035
     FM131500 32013G23KT 5SM -SN BKN035=

USA.gov is the U.S. government's official web portal to all federal, state and local government web resources and services.